Time;durP1;ratioP1;P1;durP2;ratioP2;P2;SDS_P1;SDS_P2;PMS_P1;PMS_P2;Temp;Humidity;BMP_temperature;BMP_pressure;BME280_temperature;BME280_humidity;BME280_pressure;Samples;Min_cycle;Max_cycle;Signal;HPM_P1;HPM_P2
2022/08/12 00:42:57;;;;;;;;;;;;;;;;;;4966469;28;19961;-42
2022/08/12 00:45:22;;;;;;;;;;;;;;;;;;4966507;28;19957;-42
2022/08/12 00:47:48;;;;;;;;;;;;;;;;;;4967080;28;19918;-42
2022/08/12 00:50:17;;;;;;;;;;;;;;;;;;4966259;28;19914;-44
2022/08/12 00:52:43;;;;;;;;;;;;;;;;;;4965841;28;20395;-41
2022/08/12 00:55:09;;;;;;;;;;;;;;;;;;4966577;28;19946;-42
2022/08/12 00:57:35;;;;;;;;;;;;;;;;;;4965331;28;20271;-43
2022/08/12 01:00:01;;;;;;;;;;;;;;;;;;4966298;28;20362;-42
2022/08/12 01:02:27;;;;;;;;;;;;;;;;;;4969313;28;19957;-43
2022/08/12 01:13:07;;;;;;;;;;;;;;;;;;4969977;28;19917;-42
2022/08/12 01:15:33;;;;;;;;;;;;;;;;;;4969769;28;19922;-42
2022/08/12 01:17:59;;;;;;;;;;;;;;;;;;4970188;28;19917;-42
2022/08/12 01:20:24;;;;;;;;;;;;;;;;;;4968521;28;19919;-41
2022/08/12 01:22:51;;;;;;;;;;;;;;;;;;4970237;28;19914;-42
2022/08/12 01:25:17;;;;;;;;;;;;;;;;;;4970579;28;20156;-42
2022/08/12 01:27:43;;;;;;;;;;;;;;;;;;4970252;28;19914;-42
2022/08/12 01:30:09;;;;;;;;;;;;;;;;;;4969758;28;19910;-42
2022/08/12 01:32:36;;;;;;;;;;;;;;;;;;4969537;28;19993;-42
2022/08/12 01:35:02;;;;;;;;;;;;;;;;;;4969127;28;19921;-41
2022/08/12 01:37:29;;;;;;;;;;;;;;;;;;4969319;28;19937;-42
2022/08/12 01:39:56;;;;;;;;;;;;;;;;;;4970011;28;19925;-41
2022/08/12 01:42:22;;;;;;;;;;;;;;;;;;4966572;28;19918;-42
2022/08/12 01:44:47;;;;;;;;;;;;;;;;;;4970052;28;19911;-42
2022/08/12 01:47:17;;;;;;;;;;;;;;;;;;4970015;28;20224;-42
2022/08/12 01:49:43;;;;;;;;;;;;;;;;;;4969876;28;20109;-42
2022/08/12 01:52:09;;;;;;;;;;;;;;;;;;4969472;28;19910;-42
2022/08/12 01:54:37;;;;;;;;;;;;;;;;;;4969287;28;20001;-42
2022/08/12 01:57:04;;;;;;;;;;;;;;;;;;4968575;28;19965;-42
2022/08/12 01:59:45;;;;;;;;;;;;;;;;;;4968886;28;19968;-41
2022/08/12 02:02:11;;;;;;;;;;;;;;;;;;4969275;28;20279;-42
2022/08/12 02:12:53;;;;;;;;;;;;;;;;;;4967054;28;20319;-42
2022/08/12 02:15:22;;;;;;;;;;;;;;;;;;4968132;28;20402;-42
2022/08/12 02:17:48;;;;;;;;;;;;;;;;;;4969859;28;20049;-42
2022/08/12 02:20:14;;;;;;;;;;;;;;;;;;4969512;28;19996;-43
2022/08/12 02:22:40;;;;;;;;;;;;;;;;;;4968760;28;20031;-42
2022/08/12 02:25:06;;;;;;;;;;;;;;;;;;4968951;28;19965;-41
2022/08/12 02:27:33;;;;;;;;;;;;;;;;;;4968369;28;19918;-42
2022/08/12 02:29:59;;;;;;;;;;;;;;;;;;4968051;28;20019;-42
2022/08/12 02:32:25;;;;;;;;;;;;;;;;;;4968475;28;20383;-42
2022/08/12 02:34:51;;;;;;;;;;;;;;;;;;4968643;28;19916;-41
2022/08/12 02:37:17;;;;;;;;;;;;;;;;;;4969071;28;19914;-42
2022/08/12 02:39:43;;;;;;;;;;;;;;;;;;4969199;28;20511;-42
2022/08/12 02:42:09;;;;;;;;;;;;;;;;;;4968623;28;19950;-42
2022/08/12 02:44:36;;;;;;;;;;;;;;;;;;4967111;28;20061;-42
2022/08/12 02:47:02;;;;;;;;;;;;;;;;;;4966203;28;19921;-42
2022/08/12 02:49:28;;;;;;;;;;;;;;;;;;4968243;28;20013;-41
2022/08/12 02:51:54;;;;;;;;;;;;;;;;;;4968596;28;20052;-41
2022/08/12 02:54:21;;;;;;;;;;;;;;;;;;4968386;28;20292;-42
2022/08/12 02:56:46;;;;;;;;;;;;;;;;;;4968071;28;20683;-42
2022/08/12 02:59:15;;;;;;;;;;;;;;;;;;4968296;28;19965;-42
2022/08/12 03:01:41;;;;;;;;;;;;;;;;;;4967881;28;20446;-42
2022/08/12 03:04:07;;;;;;;;;;;;;;;;;;4965765;28;19921;-42
2022/08/12 03:06:33;;;;;;;;;;;;;;;;;;4968278;28;19922;-43
2022/08/12 03:08:59;;;;;;;;;;;;;;;;;;4968025;28;20000;-42
2022/08/12 03:11:25;;;;;;;;;;;;;;;;;;4966324;28;19973;-42
2022/08/12 03:13:51;;;;;;;;;;;;;;;;;;4968040;28;19949;-42
2022/08/12 03:16:19;;;;;;;;;;;;;;;;;;4968024;28;19918;-42
2022/08/12 03:18:45;;;;;;;;;;;;;;;;;;4967991;28;19961;-42
2022/08/12 03:21:12;;;;;;;;;;;;;;;;;;4967138;28;19921;-42
2022/08/12 03:23:38;;;;;;;;;;;;;;;;;;4966787;28;19910;-42
2022/08/12 03:26:04;;;;;;;;;;;;;;;;;;4967747;28;20405;-42
2022/08/12 03:31:15;;;;;;;;;;;;;;;;;;4967977;28;19917;-42
2022/08/12 03:33:44;;;;;;;;;;;;;;;;;;4967429;28;19973;-42
2022/08/12 03:36:11;;;;;;;;;;;;;;;;;;4967140;28;19969;-41
2022/08/12 03:38:42;;;;;;;;;;;;;;;;;;4967054;28;20000;-42
2022/08/12 04:00:25;;;;;;;;;;;;;;;;;;4965933;28;19925;-43
2022/08/12 04:02:57;;;;;;;;;;;;;;;;;;4967133;28;20012;-42
2022/08/12 04:05:23;;;;;;;;;;;;;;;;;;4966780;28;19914;-42
2022/08/12 04:07:49;;;;;;;;;;;;;;;;;;4966994;28;20458;-42
2022/08/12 04:10:15;;;;;;;;;;;;;;;;;;4967440;28;19919;-43
2022/08/12 04:15:27;;;;;;;;;;;;;;;;;;4965464;28;19924;-43
2022/08/12 04:17:53;;;;;;;;;;;;;;;;;;4966592;28;20001;-42
2022/08/12 04:20:19;;;;;;;;;;;;;;;;;;4966860;28;20005;-42
2022/08/12 04:22:45;;;;;;;;;;;;;;;;;;4966465;28;19914;-44
2022/08/12 04:25:11;;;;;;;;;;;;;;;;;;4966623;28;19910;-41
2022/08/12 04:27:38;;;;;;;;;;;;;;;;;;4966506;28;19914;-42
2022/08/12 04:30:06;;;;;;;;;;;;;;;;;;4965817;28;19918;-42
2022/08/12 04:32:32;;;;;;;;;;;;;;;;;;4966235;28;19910;-42
2022/08/12 04:34:57;;;;;;;;;;;;;;;;;;4967098;28;20303;-42
2022/08/12 04:37:23;;;;;;;;;;;;;;;;;;4966549;28;19910;-42
2022/08/12 04:39:50;;;;;;;;;;;;;;;;;;4967016;28;19914;-42
2022/08/12 04:42:17;;;;;;;;;;;;;;;;;;4965822;28;19914;-41
2022/08/12 04:44:44;;;;;;;;;;;;;;;;;;4966416;28;19937;-41
2022/08/12 04:47:09;;;;;;;;;;;;;;;;;;4966309;28;20366;-42
2022/08/12 04:49:37;;;;;;;;;;;;;;;;;;4966171;28;19945;-42
2022/08/12 04:52:03;;;;;;;;;;;;;;;;;;4966309;28;19960;-42
2022/08/12 04:54:30;;;;;;;;;;;;;;;;;;4966710;28;20017;-42
2022/08/12 04:56:55;;;;;;;;;;;;;;;;;;4966383;28;19914;-43
2022/08/12 04:59:21;;;;;;;;;;;;;;;;;;4966471;28;20430;-42
2022/08/12 05:01:49;;;;;;;;;;;;;;;;;;4963823;28;19940;-43
2022/08/12 05:04:16;;;;;;;;;;;;;;;;;;4967630;28;20397;-41
2022/08/12 05:06:43;;;;;;;;;;;;;;;;;;4965574;28;19921;-41
2022/08/12 05:09:09;;;;;;;;;;;;;;;;;;4966237;28;19950;-41
2022/08/12 05:11:35;;;;;;;;;;;;;;;;;;4964380;28;19957;-41
2022/08/12 05:14:01;;;;;;;;;;;;;;;;;;4966357;28;19910;-42
2022/08/12 05:16:27;;;;;;;;;;;;;;;;;;4965955;28;20224;-42
2022/08/12 05:18:53;;;;;;;;;;;;;;;;;;4966300;28;19965;-41
2022/08/12 05:21:19;;;;;;;;;;;;;;;;;;4965560;28;19914;-42
2022/08/12 05:23:45;;;;;;;;;;;;;;;;;;4966684;28;19937;-42
2022/08/12 05:26:11;;;;;;;;;;;;;;;;;;4965192;28;19920;-41
2022/08/12 05:28:37;;;;;;;;;;;;;;;;;;4965973;28;19918;-43
2022/08/12 05:31:03;;;;;;;;;;;;;;;;;;4966061;28;19927;-42
2022/08/12 05:33:36;;;;;;;;;;;;;;;;;;4965725;28;19918;-42
2022/08/12 05:36:03;;;;;;;;;;;;;;;;;;4965275;28;19929;-42
2022/08/12 05:41:20;;;;;;;;;;;;;;;;;;4965844;28;19965;-41
2022/08/12 05:43:46;;;;;;;;;;;;;;;;;;4965773;28;19921;-42
2022/08/12 05:46:12;;;;;;;;;;;;;;;;;;4966308;28;19917;-42
2022/08/12 05:48:38;;;;;;;;;;;;;;;;;;4968731;28;20391;-42
2022/08/12 05:51:03;;;;;;;;;;;;;;;;;;4967588;28;19925;-42
2022/08/12 05:53:29;;;;;;;;;;;;;;;;;;4968343;28;20425;-42
2022/08/12 05:55:55;;;;;;;;;;;;;;;;;;4968070;28;19922;-41
2022/08/12 05:58:22;;;;;;;;;;;;;;;;;;4969352;28;19910;-41
2022/08/12 06:00:48;;;;;;;;;;;;;;;;;;4964357;28;19918;-41
2022/08/12 06:03:16;;;;;;;;;;;;;;;;;;4970110;28;19926;-41
2022/08/12 06:05:44;;;;;;;;;;;;;;;;;;4969512;28;19921;-43
2022/08/12 06:08:10;;;;;;;;;;;;;;;;;;4969778;28;20381;-43
2022/08/12 06:10:36;;;;;;;;;;;;;;;;;;4970413;28;19929;-40
2022/08/12 06:13:02;;;;;;;;;;;;;;;;;;4970772;28;19914;-43
2022/08/12 06:15:28;;;;;;;;;;;;;;;;;;4970475;28;19921;-41
2022/08/12 06:17:54;;;;;;;;;;;;;;;;;;4969725;28;19953;-41
2022/08/12 06:20:20;;;;;;;;;;;;;;;;;;4970417;28;19910;-43
2022/08/12 06:22:49;;;;;;;;;;;;;;;;;;4970106;28;19910;-41
2022/08/12 06:25:17;;;;;;;;;;;;;;;;;;4970546;28;19917;-40
2022/08/12 06:27:47;;;;;;;;;;;;;;;;;;4969694;28;19922;-39
2022/08/12 06:30:14;;;;;;;;;;;;;;;;;;4970871;28;19956;-40
2022/08/12 06:32:40;;;;;;;;;;;;;;;;;;4969426;28;19918;-40
2022/08/12 06:35:06;;;;;;;;;;;;;;;;;;4969349;28;19918;-40
2022/08/12 06:37:32;;;;;;;;;;;;;;;;;;4969099;28;19921;-40
2022/08/12 06:39:58;;;;;;;;;;;;;;;;;;4966694;28;19997;-40
2022/08/12 06:45:09;;;;;;;;;;;;;;;;;;4969221;28;19945;-40
2022/08/12 06:47:35;;;;;;;;;;;;;;;;;;4969574;28;19914;-40
2022/08/12 06:50:02;;;;;;;;;;;;;;;;;;4970037;28;19910;-40
2022/08/12 06:52:30;;;;;;;;;;;;;;;;;;4969780;28;19941;-40
2022/08/12 06:54:57;;;;;;;;;;;;;;;;;;4970033;28;19910;-40
2022/08/12 06:57:26;;;;;;;;;;;;;;;;;;4969637;28;20359;-40
2022/08/12 06:59:52;;;;;;;;;;;;;;;;;;4967499;28;19969;-39
2022/08/12 07:02:19;;;;;;;;;;;;;;;;;;4969979;28;20340;-39
2022/08/12 07:04:46;;;;;;;;;;;;;;;;;;4969275;28;19917;-40
2022/08/12 07:07:12;;;;;;;;;;;;;;;;;;4969854;28;19937;-39
2022/08/12 07:09:38;;;;;;;;;;;;;;;;;;4969137;28;19910;-40
2022/08/12 07:12:04;;;;;;;;;;;;;;;;;;4969282;28;19925;-40
2022/08/12 07:14:30;;;;;;;;;;;;;;;;;;4968646;28;19914;-40
2022/08/12 07:17:00;;;;;;;;;;;;;;;;;;4968882;28;19918;-40
2022/08/12 07:19:26;;;;;;;;;;;;;;;;;;4969142;28;19957;-40
2022/08/12 07:21:53;;;;;;;;;;;;;;;;;;4968456;28;19949;-40
2022/08/12 07:24:19;;;;;;;;;;;;;;;;;;4969272;28;19957;-40
2022/08/12 07:26:45;;;;;;;;;;;;;;;;;;4966744;28;19918;-40
2022/08/12 07:29:11;;;;;;;;;;;;;;;;;;4960796;28;19921;-40
2022/08/12 07:31:37;;;;;;;;;;;;;;;;;;4968957;28;19957;-41
2022/08/12 07:34:03;;;;;;;;;;;;;;;;;;4965510;28;19918;-40
2022/08/12 07:36:32;;;;;;;;;;;;;;;;;;4969631;28;20013;-40
2022/08/12 07:38:58;;;;;;;;;;;;;;;;;;4968557;28;19918;-40
2022/08/12 07:41:25;;;;;;;;;;;;;;;;;;4969560;28;19914;-40
2022/08/12 07:43:52;;;;;;;;;;;;;;;;;;4969228;28;19964;-40
2022/08/12 07:46:19;;;;;;;;;;;;;;;;;;4964986;28;19918;-40
2022/08/12 07:48:45;;;;;;;;;;;;;;;;;;4968967;28;19925;-40
2022/08/12 07:51:11;;;;;;;;;;;;;;;;;;4970294;28;20376;-40
2022/08/12 07:53:37;;;;;;;;;;;;;;;;;;4968189;28;19918;-40
2022/08/12 07:56:03;;;;;;;;;;;;;;;;;;4963348;28;19945;-40
2022/08/12 07:58:28;;;;;;;;;;;;;;;;;;4957765;28;19915;-41
2022/08/12 08:00:59;;;;;;;;;;;;;;;;;;4954831;28;19976;-42
2022/08/12 08:03:25;;;;;;;;;;;;;;;;;;4967184;28;20012;-40
2022/08/12 08:05:51;;;;;;;;;;;;;;;;;;4969438;28;20053;-41
2022/08/12 08:08:17;;;;;;;;;;;;;;;;;;4969352;28;20307;-40
2022/08/12 08:10:42;;;;;;;;;;;;;;;;;;4969071;28;19919;-42
2022/08/12 08:13:10;;;;;;;;;;;;;;;;;;4969410;28;20335;-40
2022/08/12 08:15:38;;;;;;;;;;;;;;;;;;4967960;28;20446;-42
2022/08/12 08:18:04;;;;;;;;;;;;;;;;;;4969027;28;20285;-42
2022/08/12 08:20:32;;;;;;;;;;;;;;;;;;4968151;28;19927;-42
2022/08/12 08:22:58;;;;;;;;;;;;;;;;;;4969104;28;19960;-42
2022/08/12 08:25:30;;;;;;;;;;;;;;;;;;4968767;28;20020;-43
2022/08/12 08:27:56;;;;;;;;;;;;;;;;;;4969060;28;19937;-42
2022/08/12 08:30:22;;;;;;;;;;;;;;;;;;4968787;28;19914;-42
2022/08/12 08:32:48;;;;;;;;;;;;;;;;;;4967454;28;19910;-42
2022/08/12 08:35:14;;;;;;;;;;;;;;;;;;4959919;28;19930;-41
2022/08/12 08:37:45;;;;;;;;;;;;;;;;;;4959988;28;19918;-42
2022/08/12 08:42:55;;;;;;;;;;;;;;;;;;4967806;28;20311;-42
2022/08/12 08:45:21;;;;;;;;;;;;;;;;;;4968425;28;19914;-42
2022/08/12 08:47:47;;;;;;;;;;;;;;;;;;4967084;28;19969;-41
2022/08/12 08:50:16;;;;;;;;;;;;;;;;;;4969417;28;19910;-42
2022/08/12 08:52:42;;;;;;;;;;;;;;;;;;4968960;28;19937;-42
2022/08/12 08:55:08;;;;;;;;;;;;;;;;;;4967803;28;19914;-42
2022/08/12 08:57:34;;;;;;;;;;;;;;;;;;4968443;28;19910;-42
2022/08/12 09:00:00;;;;;;;;;;;;;;;;;;4968318;28;19918;-42
2022/08/12 09:02:26;;;;;;;;;;;;;;;;;;4968489;28;19911;-43
2022/08/12 09:04:52;;;;;;;;;;;;;;;;;;4968315;28;19965;-43
2022/08/12 09:07:19;;;;;;;;;;;;;;;;;;4967692;28;19919;-42
2022/08/12 09:09:45;;;;;;;;;;;;;;;;;;4967460;28;19918;-42
2022/08/12 09:14:57;;;;;;;;;;;;;;;;;;4963398;28;19925;-41
2022/08/12 09:17:23;;;;;;;;;;;;;;;;;;4966986;28;19929;-42
2022/08/12 09:19:49;;;;;;;;;;;;;;;;;;4968680;28;20287;-42
2022/08/12 09:22:15;;;;;;;;;;;;;;;;;;4970184;28;19914;-43
2022/08/12 09:24:40;;;;;;;;;;;;;;;;;;4972512;28;19921;-41
2022/08/12 09:27:07;;;;;;;;;;;;;;;;;;4972018;28;19922;-43
2022/08/12 09:29:34;;;;;;;;;;;;;;;;;;4971717;28;19925;-41
2022/08/12 09:32:05;;;;;;;;;;;;;;;;;;4970912;28;19933;-43
2022/08/12 09:34:35;;;;;;;;;;;;;;;;;;4969200;28;19914;-42
2022/08/12 09:37:01;;;;;;;;;;;;;;;;;;4970838;28;19937;-42
2022/08/12 09:39:27;;;;;;;;;;;;;;;;;;4971649;28;20354;-42
2022/08/12 09:47:27;;;;;;;;;;;;;;;;;;4952569;29;19962;-43
2022/08/12 09:49:53;;;;;;;;;;;;;;;;;;4971042;28;19914;-41
2022/08/12 09:52:19;;;;;;;;;;;;;;;;;;4970804;28;19910;-42
2022/08/12 09:54:45;;;;;;;;;;;;;;;;;;4971095;28;19914;-42
2022/08/12 09:57:18;;;;;;;;;;;;;;;;;;4971270;28;19964;-43
2022/08/12 09:59:43;;;;;;;;;;;;;;;;;;4969470;28;19918;-42
2022/08/12 10:02:11;;;;;;;;;;;;;;;;;;4970628;28;20597;-42
2022/08/12 10:04:41;;;;;;;;;;;;;;;;;;4970260;28;19968;-42
2022/08/12 10:07:07;;;;;;;;;;;;;;;;;;4970061;28;19928;-42
2022/08/12 10:09:34;;;;;;;;;;;;;;;;;;4970081;28;20005;-41
2022/08/12 10:14:44;;;;;;;;;;;;;;;;;;4962437;28;19961;-41
2022/08/12 10:17:10;;;;;;;;;;;;;;;;;;4971254;28;19926;-42
2022/08/12 10:19:38;;;;;;;;;;;;;;;;;;4970947;28;19937;-42
2022/08/12 10:22:08;;;;;;;;;;;;;;;;;;4970135;28;19987;-43
2022/08/12 10:24:34;;;;;;;;;;;;;;;;;;4970457;28;20371;-41
2022/08/12 10:29:48;;;;;;;;;;;;;;;;;;4958118;28;20462;-41
2022/08/12 10:32:16;;;;;;;;;;;;;;;;;;4969681;28;19964;-41
2022/08/12 10:34:42;;;;;;;;;;;;;;;;;;4959372;28;20423;-42
2022/08/12 10:37:07;;;;;;;;;;;;;;;;;;4961323;28;19918;-42
2022/08/12 10:39:35;;;;;;;;;;;;;;;;;;4969177;28;19914;-42
2022/08/12 10:44:46;;;;;;;;;;;;;;;;;;4968989;28;19925;-42
2022/08/12 10:47:12;;;;;;;;;;;;;;;;;;4970282;28;20295;-43
2022/08/12 10:49:37;;;;;;;;;;;;;;;;;;4969548;28;19917;-42
2022/08/12 10:52:03;;;;;;;;;;;;;;;;;;4966286;28;19923;-42
2022/08/12 10:54:29;;;;;;;;;;;;;;;;;;4980947;28;19953;-42
2022/08/12 10:56:56;;;;;;;;;;;;;;;;;;4974848;28;20563;-41
2022/08/12 10:59:23;;;;;;;;;;;;;;;;;;4970365;28;19911;-42
2022/08/12 11:01:49;;;;;;;;;;;;;;;;;;4966291;28;19922;-43
2022/08/12 11:04:15;;;;;;;;;;;;;;;;;;4967133;28;19918;-42
2022/08/12 11:06:47;;;;;;;;;;;;;;;;;;4965865;28;19985;-42
2022/08/12 11:09:16;;;;;;;;;;;;;;;;;;4966683;28;19914;-43
2022/08/12 11:11:42;;;;;;;;;;;;;;;;;;4965791;28;19914;-43
2022/08/12 11:14:08;;;;;;;;;;;;;;;;;;4965078;28;19918;-42
2022/08/12 11:16:33;;;;;;;;;;;;;;;;;;4964670;28;20156;-42
2022/08/12 11:18:59;;;;;;;;;;;;;;;;;;4965775;28;19922;-43
2022/08/12 11:21:25;;;;;;;;;;;;;;;;;;4964892;28;19953;-42
2022/08/12 11:23:51;;;;;;;;;;;;;;;;;;4966633;28;19918;-42
2022/08/12 11:26:17;;;;;;;;;;;;;;;;;;4966658;28;19922;-42
2022/08/12 11:28:43;;;;;;;;;;;;;;;;;;4965202;28;20334;-42
2022/08/12 11:31:09;;;;;;;;;;;;;;;;;;4965875;28;19953;-42
2022/08/12 11:33:35;;;;;;;;;;;;;;;;;;4966646;28;20086;-42
2022/08/12 11:36:01;;;;;;;;;;;;;;;;;;4966030;28;19918;-42
2022/08/12 11:38:27;;;;;;;;;;;;;;;;;;4960880;28;19941;-42
2022/08/12 11:40:53;;;;;;;;;;;;;;;;;;4965148;28;19918;-42
2022/08/12 11:43:19;;;;;;;;;;;;;;;;;;4967913;28;20540;-42
2022/08/12 11:45:45;;;;;;;;;;;;;;;;;;4967870;28;20021;-42
2022/08/12 11:48:11;;;;;;;;;;;;;;;;;;4969056;28;19917;-43
2022/08/12 11:50:37;;;;;;;;;;;;;;;;;;4967421;28;19925;-42
2022/08/12 11:53:03;;;;;;;;;;;;;;;;;;4968754;28;19914;-42
2022/08/12 11:55:29;;;;;;;;;;;;;;;;;;4968555;28;19911;-43
2022/08/12 11:57:55;;;;;;;;;;;;;;;;;;4967433;28;20303;-43
2022/08/12 12:00:21;;;;;;;;;;;;;;;;;;4967956;28;19918;-42
2022/08/12 12:02:47;;;;;;;;;;;;;;;;;;4962044;28;19918;-42
2022/08/12 12:05:14;;;;;;;;;;;;;;;;;;4969149;28;19917;-42
2022/08/12 12:07:40;;;;;;;;;;;;;;;;;;4968538;28;20470;-42
2022/08/12 12:10:06;;;;;;;;;;;;;;;;;;4952284;28;20001;-42
2022/08/12 12:12:32;;;;;;;;;;;;;;;;;;4966248;28;19929;-43
2022/08/12 12:14:58;;;;;;;;;;;;;;;;;;4967463;28;19922;-43
2022/08/12 12:17:24;;;;;;;;;;;;;;;;;;4971742;28;19980;-42
2022/08/12 12:19:51;;;;;;;;;;;;;;;;;;4966887;28;20355;-42
2022/08/12 12:22:17;;;;;;;;;;;;;;;;;;4964535;28;20392;-42
2022/08/12 12:24:45;;;;;;;;;;;;;;;;;;4966481;28;19924;-44
2022/08/12 12:27:11;;;;;;;;;;;;;;;;;;4968002;28;19965;-43
2022/08/12 12:29:37;;;;;;;;;;;;;;;;;;4967477;28;21567;-42
2022/08/12 12:32:03;;;;;;;;;;;;;;;;;;4966596;28;19918;-42
2022/08/12 12:34:29;;;;;;;;;;;;;;;;;;4966812;28;19953;-42
2022/08/12 12:36:54;;;;;;;;;;;;;;;;;;4967703;28;19914;-42
2022/08/12 12:39:20;;;;;;;;;;;;;;;;;;4967982;28;19910;-42
2022/08/12 12:41:46;;;;;;;;;;;;;;;;;;4967581;28;20000;-42
2022/08/12 12:44:12;;;;;;;;;;;;;;;;;;4967644;28;19941;-42
2022/08/12 12:46:38;;;;;;;;;;;;;;;;;;4967008;28;19960;-42
2022/08/12 12:49:04;;;;;;;;;;;;;;;;;;4968015;28;19973;-43
2022/08/12 12:51:30;;;;;;;;;;;;;;;;;;4967571;28;19914;-43
2022/08/12 12:53:56;;;;;;;;;;;;;;;;;;4965945;28;19918;-42
2022/08/12 12:56:22;;;;;;;;;;;;;;;;;;4967639;28;20037;-42
2022/08/12 12:58:51;;;;;;;;;;;;;;;;;;4980152;28;19942;-42
2022/08/12 13:01:18;;;;;;;;;;;;;;;;;;4987274;28;20418;-42
2022/08/12 13:03:44;;;;;;;;;;;;;;;;;;4987679;28;19922;-42
2022/08/12 13:06:10;;;;;;;;;;;;;;;;;;4971759;28;19949;-42
2022/08/12 13:08:36;;;;;;;;;;;;;;;;;;4967032;28;20426;-42
2022/08/12 13:11:02;;;;;;;;;;;;;;;;;;4967915;28;19922;-42
2022/08/12 13:13:31;;;;;;;;;;;;;;;;;;4966106;28;20461;-43
2022/08/12 13:16:00;;;;;;;;;;;;;;;;;;4967806;28;19921;-42
2022/08/12 13:18:29;;;;;;;;;;;;;;;;;;4967487;28;19938;-42
2022/08/12 13:20:56;;;;;;;;;;;;;;;;;;4966277;28;20434;-43
2022/08/12 13:23:22;;;;;;;;;;;;;;;;;;4967666;28;19922;-42
2022/08/12 13:25:48;;;;;;;;;;;;;;;;;;4966265;28;20474;-44
2022/08/12 13:28:14;;;;;;;;;;;;;;;;;;4967089;28;19961;-42
2022/08/12 13:30:40;;;;;;;;;;;;;;;;;;4964008;28;20025;-45
2022/08/12 13:33:09;;;;;;;;;;;;;;;;;;4967217;28;19914;-45
2022/08/12 13:35:37;;;;;;;;;;;;;;;;;;4967954;28;19914;-44
2022/08/12 13:38:04;;;;;;;;;;;;;;;;;;4967275;28;19918;-43
2022/08/12 13:40:30;;;;;;;;;;;;;;;;;;4966319;28;19918;-43
2022/08/12 13:43:00;;;;;;;;;;;;;;;;;;4968320;28;19906;-42
2022/08/12 13:45:26;;;;;;;;;;;;;;;;;;4966915;28;19970;-44
2022/08/12 13:47:55;;;;;;;;;;;;;;;;;;4967343;28;19929;-44
2022/08/12 13:50:21;;;;;;;;;;;;;;;;;;4966471;28;19961;-43
2022/08/12 13:52:47;;;;;;;;;;;;;;;;;;4967366;28;19918;-42
2022/08/12 13:55:13;;;;;;;;;;;;;;;;;;4968792;28;19922;-43
2022/08/12 13:57:42;;;;;;;;;;;;;;;;;;4966832;28;19920;-43
2022/08/12 14:00:09;;;;;;;;;;;;;;;;;;4968304;28;19921;-43
2022/08/12 14:02:37;;;;;;;;;;;;;;;;;;4967546;28;19928;-44
2022/08/12 14:05:03;;;;;;;;;;;;;;;;;;4967480;28;19977;-44
2022/08/12 14:07:32;;;;;;;;;;;;;;;;;;4967855;28;19914;-45
2022/08/12 14:12:45;;;;;;;;;;;;;;;;;;4959710;28;19972;-43
2022/08/12 14:15:11;;;;;;;;;;;;;;;;;;4972376;28;19910;-43
2022/08/12 14:17:37;;;;;;;;;;;;;;;;;;4970213;28;19969;-43
2022/08/12 14:20:12;;;;;;;;;;;;;;;;;;4971632;28;19923;-44
2022/08/12 14:22:38;;;;;;;;;;;;;;;;;;4967730;28;20442;-44
2022/08/12 14:25:03;;;;;;;;;;;;;;;;;;4970061;28;19921;-44
2022/08/12 14:27:30;;;;;;;;;;;;;;;;;;4967499;28;19972;-43
2022/08/12 14:29:56;;;;;;;;;;;;;;;;;;4968068;28;19917;-43
2022/08/12 14:32:22;;;;;;;;;;;;;;;;;;4970608;28;19922;-43
2022/08/12 14:34:50;;;;;;;;;;;;;;;;;;4970975;28;20509;-43
2022/08/12 14:37:16;;;;;;;;;;;;;;;;;;4969550;28;19976;-45
2022/08/12 14:39:42;;;;;;;;;;;;;;;;;;4969054;28;20383;-43
2022/08/12 14:42:08;;;;;;;;;;;;;;;;;;4966687;28;20299;-44
2022/08/12 14:44:34;;;;;;;;;;;;;;;;;;4969312;28;19915;-44
2022/08/12 14:47:01;;;;;;;;;;;;;;;;;;4968961;28;19925;-43
2022/08/12 14:49:27;;;;;;;;;;;;;;;;;;4969636;28;19918;-43
2022/08/12 14:51:56;;;;;;;;;;;;;;;;;;4968903;28;19918;-45
2022/08/12 14:54:22;;;;;;;;;;;;;;;;;;4969761;28;19910;-44
2022/08/12 14:56:49;;;;;;;;;;;;;;;;;;4969408;28;19914;-44
2022/08/12 15:01:59;;;;;;;;;;;;;;;;;;4952680;28;19922;-43
2022/08/12 15:04:27;;;;;;;;;;;;;;;;;;4970423;28;19918;-45
2022/08/12 15:06:53;;;;;;;;;;;;;;;;;;4969822;28;19933;-43
2022/08/12 15:09:19;;;;;;;;;;;;;;;;;;4969502;28;19973;-43
2022/08/12 15:11:48;;;;;;;;;;;;;;;;;;4970131;28;19914;-42
2022/08/12 15:14:14;;;;;;;;;;;;;;;;;;4970761;28;19914;-43
2022/08/12 15:16:40;;;;;;;;;;;;;;;;;;4968764;28;20128;-43
2022/08/12 15:19:07;;;;;;;;;;;;;;;;;;4966796;28;19914;-44
2022/08/12 15:21:36;;;;;;;;;;;;;;;;;;4969635;28;19940;-43
2022/08/12 15:24:02;;;;;;;;;;;;;;;;;;4970489;28;19949;-44
2022/08/12 15:26:35;;;;;;;;;;;;;;;;;;4969810;28;19961;-43
2022/08/12 15:29:01;;;;;;;;;;;;;;;;;;4969363;28;19953;-43
2022/08/12 15:31:27;;;;;;;;;;;;;;;;;;4969415;28;19957;-43
2022/08/12 15:33:54;;;;;;;;;;;;;;;;;;4970223;28;20000;-43
2022/08/12 15:36:20;;;;;;;;;;;;;;;;;;4967474;28;20481;-43
2022/08/12 15:38:46;;;;;;;;;;;;;;;;;;4968633;28;20395;-43
2022/08/12 15:41:13;;;;;;;;;;;;;;;;;;4966732;28;19946;-43
2022/08/12 15:43:39;;;;;;;;;;;;;;;;;;4963950;28;19925;-43
2022/08/12 15:46:05;;;;;;;;;;;;;;;;;;4967192;28;19922;-43
2022/08/12 15:48:31;;;;;;;;;;;;;;;;;;4968749;28;20005;-42
2022/08/12 15:50:57;;;;;;;;;;;;;;;;;;4969180;28;20586;-42
2022/08/12 15:56:08;;;;;;;;;;;;;;;;;;4967698;28;19956;-43
2022/08/12 15:58:34;;;;;;;;;;;;;;;;;;4967960;28;19914;-43
2022/08/12 16:01:00;;;;;;;;;;;;;;;;;;4968345;28;19914;-43
2022/08/12 16:03:32;;;;;;;;;;;;;;;;;;4966828;28;19925;-43
2022/08/12 16:05:58;;;;;;;;;;;;;;;;;;4966680;28;19925;-43
2022/08/12 16:08:24;;;;;;;;;;;;;;;;;;4968428;28;19977;-43
2022/08/12 16:10:51;;;;;;;;;;;;;;;;;;4968455;28;19914;-43
2022/08/12 16:13:18;;;;;;;;;;;;;;;;;;4967511;28;19985;-44
2022/08/12 16:15:45;;;;;;;;;;;;;;;;;;4969192;28;19914;-43
2022/08/12 16:18:12;;;;;;;;;;;;;;;;;;4969130;28;19918;-44
2022/08/12 16:20:38;;;;;;;;;;;;;;;;;;4965959;28;19957;-42
2022/08/12 16:23:05;;;;;;;;;;;;;;;;;;4965470;28;19953;-44
2022/08/12 16:25:31;;;;;;;;;;;;;;;;;;4968138;28;19918;-43
2022/08/12 16:27:57;;;;;;;;;;;;;;;;;;4968242;28;20426;-43
2022/08/12 16:30:23;;;;;;;;;;;;;;;;;;4966408;28;19924;-43
2022/08/12 16:32:49;;;;;;;;;;;;;;;;;;4965180;28;19918;-43
2022/08/12 16:35:15;;;;;;;;;;;;;;;;;;4964872;28;19918;-43
2022/08/12 16:37:42;;;;;;;;;;;;;;;;;;4967663;28;19961;-43
2022/08/12 16:40:09;;;;;;;;;;;;;;;;;;4966492;28;19918;-42
2022/08/12 16:42:38;;;;;;;;;;;;;;;;;;4966412;28;19940;-43
2022/08/12 16:45:04;;;;;;;;;;;;;;;;;;4966055;28;19924;-43
2022/08/12 16:47:30;;;;;;;;;;;;;;;;;;4965307;28;20017;-43
2022/08/12 16:49:56;;;;;;;;;;;;;;;;;;4965391;28;20001;-43
2022/08/12 16:52:23;;;;;;;;;;;;;;;;;;4964122;28;19918;-45
2022/08/12 16:54:49;;;;;;;;;;;;;;;;;;4963004;28;20044;-43
2022/08/12 16:57:17;;;;;;;;;;;;;;;;;;4964777;28;19960;-42
2022/08/12 16:59:44;;;;;;;;;;;;;;;;;;4965638;28;20081;-43
2022/08/12 17:02:10;;;;;;;;;;;;;;;;;;4965772;28;20450;-43
2022/08/12 17:04:37;;;;;;;;;;;;;;;;;;4964837;28;20007;-42
2022/08/12 17:07:03;;;;;;;;;;;;;;;;;;4964157;28;19925;-43
2022/08/12 17:09:31;;;;;;;;;;;;;;;;;;4964959;28;19918;-43
2022/08/12 17:11:56;;;;;;;;;;;;;;;;;;4965221;28;19914;-43
2022/08/12 17:14:22;;;;;;;;;;;;;;;;;;4964321;28;19925;-44
2022/08/12 17:16:50;;;;;;;;;;;;;;;;;;4960042;28;19922;-43
2022/08/12 17:19:16;;;;;;;;;;;;;;;;;;4956588;28;19942;-43
2022/08/12 17:21:43;;;;;;;;;;;;;;;;;;4959832;28;20653;-42
2022/08/12 17:24:09;;;;;;;;;;;;;;;;;;4965150;28;19920;-43
2022/08/12 17:26:36;;;;;;;;;;;;;;;;;;4963105;28;20307;-44
2022/08/12 17:29:02;;;;;;;;;;;;;;;;;;4964892;28;20012;-43
2022/08/12 17:31:27;;;;;;;;;;;;;;;;;;4965542;28;20000;-43
2022/08/12 17:33:54;;;;;;;;;;;;;;;;;;4964476;28;19918;-43
2022/08/12 17:36:20;;;;;;;;;;;;;;;;;;4965561;28;19918;-43
2022/08/12 17:38:47;;;;;;;;;;;;;;;;;;4964513;28;19914;-43
2022/08/12 17:41:14;;;;;;;;;;;;;;;;;;4964503;28;19977;-43
2022/08/12 17:43:42;;;;;;;;;;;;;;;;;;4965867;28;19949;-44
2022/08/12 17:46:07;;;;;;;;;;;;;;;;;;4969087;28;19924;-43
2022/08/12 17:48:34;;;;;;;;;;;;;;;;;;4966936;28;19918;-43
2022/08/12 17:51:01;;;;;;;;;;;;;;;;;;4968718;28;20298;-43
2022/08/12 17:53:28;;;;;;;;;;;;;;;;;;4966938;28;20240;-44
2022/08/12 17:55:56;;;;;;;;;;;;;;;;;;4968461;28;20296;-43
2022/08/12 17:58:30;;;;;;;;;;;;;;;;;;4968383;28;19922;-44
2022/08/12 18:00:55;;;;;;;;;;;;;;;;;;4967521;28;19957;-43
2022/08/12 18:03:21;;;;;;;;;;;;;;;;;;4967465;28;19968;-44
2022/08/12 18:05:49;;;;;;;;;;;;;;;;;;4967613;28;19915;-46
2022/08/12 18:08:16;;;;;;;;;;;;;;;;;;4967503;28;20466;-43
2022/08/12 18:13:30;;;;;;;;;;;;;;;;;;4961089;28;20307;-43
2022/08/12 18:15:57;;;;;;;;;;;;;;;;;;4967156;28;20036;-42
2022/08/12 18:18:25;;;;;;;;;;;;;;;;;;4965825;28;20469;-42
2022/08/12 18:20:51;;;;;;;;;;;;;;;;;;4966785;28;19914;-42
2022/08/12 18:23:17;;;;;;;;;;;;;;;;;;4968005;28;19921;-42
2022/08/12 18:28:27;;;;;;;;;;;;;;;;;;4955448;28;19937;-43
2022/08/12 18:30:53;;;;;;;;;;;;;;;;;;4967977;28;19922;-44
2022/08/12 18:33:22;;;;;;;;;;;;;;;;;;4964039;28;19941;-43
2022/08/12 18:35:48;;;;;;;;;;;;;;;;;;4958050;28;20004;-44
2022/08/12 18:38:14;;;;;;;;;;;;;;;;;;4970290;28;20025;-42
2022/08/12 18:43:24;;;;;;;;;;;;;;;;;;4961380;28;19973;-42
2022/08/12 18:45:50;;;;;;;;;;;;;;;;;;4952083;28;19993;-44